Pavlodar, Kazakhstan
Current Conditions -  °F | °C
As of 4:00 PM on Saturday 22 Nov 2014 (Local Time) from UASP Reporting Station
Light Snow Light Snow  
Wind Chill: 16°   Ceiling: 1200
Heat Index: 27°   Visibility: 4mi
Dew Point: 21°   Wind: 11mph
Humidity: 80%   Direction: 240°WSW
Pressure: 30.21"   Gusts: NA
Location:  52.3°N, 76.95°E
Report Text: UASP 221000Z 24005MPS 7000 -SN OVC012 M03/M06 Q1023 R21/0///60NOSIG RMK QFE756/1008
Loading
Personal Weather Stations






























Interactive Weather Map New forecast layout! Learn more

10-Day Weather Forecast

Advertisements
Track Severe Weather on mobile